Terminal Aerodrome Forecast
Issued by NWS

Home | Current Version | Previous Version | Graphics & Text | Print | Product List | Glossary On
Versions: 1 2 3 4 5 6 7 8 9 10 11 12 13 14 15
908
FTUS43 KBIS 011912 AAA
TAFDIK
TAF AMD
KDIK 011912Z 0119/0218 30005KT P6SM SKC
     FM020600 22004KT P6SM FEW250
     FM021300 27008KT P6SM SCT100
     FM021600 30010KT P6SM BKN090=

USA.gov is the U.S. government's official web portal to all federal, state and local government web resources and services.